Terminal Aerodrome Forecast
Issued by NWS

Home | Current Version | Previous Version | Text Only | Print | Product List | Glossary On
Versions: 1 2 3 4 5 6 7 8 9 10 11 12 13
000
FTUS42 KTAE 012325
TAFABY
TAF
KABY 012325Z 0200/0224 VRB03KT P6SM SCT035 BKN050
     FM021800 VRB04KT P6SM VCTS SCT025CB BKN050
      TEMPO 0218/0222 VRB12G20KT 4SM TSRA BKN025CB=

USA.gov is the U.S. government's official web portal to all federal, state and local government web resources and services.